createdAt,value
2023-05-15T00:00:17.685Z,6.88
2023-05-15T00:03:05.045Z,8.82
2023-05-15T00:05:33.022Z,10.50
2023-05-15T00:08:00.221Z,6.47
2023-05-15T00:10:27.774Z,6.15
2023-05-15T00:12:55.679Z,5.82
2023-05-15T00:15:23.508Z,6.28
2023-05-15T00:17:50.987Z,5.22
2023-05-15T00:20:18.681Z,6.85
2023-05-15T00:22:46.021Z,9.43
2023-05-15T00:25:13.569Z,6.55
2023-05-15T00:27:40.793Z,8.75
2023-05-15T00:30:08.937Z,6.03
2023-05-15T00:32:36.269Z,8.60
2023-05-15T00:35:05.394Z,5.35
2023-05-15T00:37:32.619Z,6.25
2023-05-15T00:40:00.226Z,7.72
2023-05-15T00:42:29.100Z,4.43
2023-05-15T00:44:58.432Z,9.45
2023-05-15T00:47:27.372Z,6.18
2023-05-15T00:49:55.770Z,7.25
2023-05-15T00:52:23.723Z,7.85
2023-05-15T00:54:51.560Z,8.05
2023-05-15T00:57:20.265Z,11.32
2023-05-15T00:59:48.933Z,5.45
2023-05-15T01:02:17.703Z,6.07
2023-05-15T01:04:45.949Z,6.13
2023-05-15T01:07:15.107Z,7.68
2023-05-15T01:09:45.828Z,5.75
2023-05-15T01:12:15.585Z,4.30
2023-05-15T01:14:43.080Z,5.43
2023-05-15T01:17:10.264Z,4.47
2023-05-15T01:19:38.879Z,6.63
2023-05-15T01:22:18.448Z,5.63
2023-05-15T01:25:15.195Z,7.13
2023-05-15T01:27:51.478Z,5.82
2023-05-15T01:30:31.129Z,5.88
2023-05-15T01:33:22.518Z,8.15
2023-05-15T01:36:12.655Z,6.32
2023-05-15T01:38:58.806Z,10.10
2023-05-15T01:41:45.485Z,6.50
2023-05-15T01:44:26.488Z,5.65
2023-05-15T01:46:57.796Z,7.28
2023-05-15T01:49:27.252Z,8.68
2023-05-15T01:52:18.967Z,8.45
2023-05-15T01:54:46.831Z,4.43
2023-05-15T01:57:15.425Z,5.68
2023-05-15T01:59:43.193Z,4.47
2023-05-15T02:02:11.233Z,5.57
2023-05-15T02:04:39.043Z,5.60
2023-05-15T02:07:07.618Z,5.40
2023-05-15T02:09:36.179Z,5.28
2023-05-15T02:12:05.399Z,6.22
2023-05-15T02:14:33.305Z,4.90
2023-05-15T02:17:00.876Z,6.68
2023-05-15T02:19:28.164Z,4.95
2023-05-15T02:21:55.749Z,5.82
2023-05-15T02:24:22.926Z,4.63
2023-05-15T02:27:04.891Z,7.20
2023-05-15T02:29:42.471Z,7.40
2023-05-15T02:32:17.308Z,5.43
2023-05-15T02:35:19.471Z,8.70
2023-05-15T02:37:49.842Z,6.97
2023-05-15T02:40:19.641Z,6.68
2023-05-15T02:42:48.045Z,7.25
2023-05-15T02:45:16.470Z,5.80
2023-05-15T02:47:45.818Z,8.13
2023-05-15T02:50:13.274Z,7.82
2023-05-15T02:52:40.731Z,7.22
2023-05-15T02:55:08.795Z,6.32
2023-05-15T02:57:36.541Z,8.18
2023-05-15T03:00:06.745Z,6.72
2023-05-15T03:02:34.255Z,5.75
2023-05-15T03:05:01.519Z,8.32
2023-05-15T03:07:29.162Z,5.60
2023-05-15T03:09:56.432Z,4.07
2023-05-15T03:12:23.924Z,6.43
2023-05-15T03:14:51.090Z,13.75
2023-05-15T03:17:18.554Z,5.32
2023-05-15T03:19:45.740Z,8.32
2023-05-15T03:22:13.423Z,5.78
2023-05-15T03:24:40.674Z,5.05
2023-05-15T03:27:08.137Z,10.43
2023-05-15T03:29:35.334Z,5.70
2023-05-15T03:32:02.807Z,6.22
2023-05-15T03:34:30.138Z,6.30
2023-05-15T03:36:57.961Z,5.82
2023-05-15T03:39:25.173Z,5.10
2023-05-15T03:41:52.639Z,5.28
2023-05-15T03:44:22.770Z,7.45
2023-05-15T03:46:50.377Z,5.10
2023-05-15T03:49:18.286Z,4.93
2023-05-15T03:51:45.873Z,6.50
2023-05-15T03:54:14.222Z,7.70
2023-05-15T03:56:41.727Z,5.68
2023-05-15T03:59:09.190Z,10.23
2023-05-15T04:01:47.333Z,8.30
2023-05-15T04:04:22.838Z,6.40
2023-05-15T04:06:51.416Z,7.93
2023-05-15T04:09:18.636Z,7.50
2023-05-15T04:11:46.826Z,7.63
2023-05-15T04:14:14.123Z,9.25
2023-05-15T04:16:41.729Z,8.65
2023-05-15T04:19:08.950Z,6.93
2023-05-15T04:21:36.517Z,7.60
2023-05-15T04:24:04.141Z,6.30
2023-05-15T04:26:31.739Z,6.80
2023-05-15T04:29:03.914Z,10.43
2023-05-15T04:31:32.417Z,5.75
2023-05-15T04:33:59.655Z,7.55
2023-05-15T04:36:27.223Z,7.88
2023-05-15T04:38:54.513Z,8.27
2023-05-15T04:41:22.325Z,6.35
2023-05-15T04:43:49.576Z,8.45
2023-05-15T04:46:17.086Z,6.85
2023-05-15T04:48:44.276Z,5.72
2023-05-15T04:51:12.291Z,7.47
2023-05-15T04:53:39.431Z,7.60
2023-05-15T04:56:07.101Z,6.05
2023-05-15T04:58:34.257Z,9.57
2023-05-15T05:01:03.918Z,6.60
2023-05-15T05:03:31.650Z,6.43
2023-05-15T05:05:59.262Z,9.05
2023-05-15T05:08:26.584Z,13.43
2023-05-15T05:10:59.854Z,11.23
2023-05-15T05:13:27.039Z,8.70
2023-05-15T05:15:54.595Z,9.25
2023-05-15T05:18:21.778Z,6.47
2023-05-15T05:20:50.662Z,10.27
2023-05-15T05:23:18.361Z,9.07
2023-05-15T05:25:46.178Z,5.63
2023-05-15T05:28:13.402Z,9.82
2023-05-15T05:30:45.498Z,12.52
2023-05-15T05:33:13.053Z,13.48
2023-05-15T05:35:40.778Z,11.02
2023-05-15T05:38:08.006Z,9.75
2023-05-15T05:40:35.508Z,13.20
2023-05-15T05:43:03.137Z,8.80
2023-05-15T05:45:31.219Z,8.88
2023-05-15T05:47:58.756Z,9.13
2023-05-15T05:50:26.411Z,10.38
2023-05-15T05:52:53.552Z,16.27
2023-05-15T05:55:21.014Z,10.68
2023-05-15T05:57:48.250Z,12.30
2023-05-15T06:00:16.129Z,9.52
2023-05-15T06:02:43.848Z,7.90
2023-05-15T06:05:11.606Z,16.67
2023-05-15T06:07:38.864Z,11.77
2023-05-15T06:10:09.550Z,9.55
2023-05-15T06:12:37.007Z,8.48
2023-05-15T06:15:05.032Z,9.93
2023-05-15T06:17:32.269Z,11.85
2023-05-15T06:19:59.823Z,12.93
2023-05-15T06:22:27.011Z,12.30
2023-05-15T06:24:54.487Z,5.90
2023-05-15T06:27:21.660Z,13.82
2023-05-15T06:29:49.162Z,11.18
2023-05-15T06:32:16.397Z,9.90
2023-05-15T06:34:43.977Z,6.80
2023-05-15T06:37:11.857Z,11.00
2023-05-15T06:39:39.457Z,5.75
2023-05-15T06:42:06.806Z,9.80
2023-05-15T06:44:36.025Z,5.65
2023-05-15T06:47:03.601Z,12.93
2023-05-15T06:49:31.282Z,18.50
2023-05-15T06:51:58.615Z,9.05
2023-05-15T06:54:26.174Z,5.80
2023-05-15T06:56:53.361Z,15.00
2023-05-15T06:59:20.901Z,9.82
2023-05-15T07:01:48.141Z,8.60
2023-05-15T07:04:15.832Z,7.85
2023-05-15T07:06:43.698Z,7.82
2023-05-15T07:09:12.859Z,13.43
2023-05-15T07:11:42.259Z,13.82
2023-05-15T07:14:09.824Z,11.02
2023-05-15T07:16:37.004Z,9.68
2023-05-15T07:19:04.569Z,8.38
2023-05-15T07:21:32.505Z,6.40
2023-05-15T07:24:00.039Z,7.65
2023-05-15T07:26:34.369Z,7.15
2023-05-15T07:29:04.505Z,7.45
2023-05-15T07:31:32.177Z,7.50
2023-05-15T07:33:59.679Z,8.45
2023-05-15T07:36:26.991Z,5.25
2023-05-15T07:38:54.502Z,6.80
2023-05-15T07:41:22.077Z,7.43
2023-05-15T07:43:49.550Z,5.07
2023-05-15T07:46:16.871Z,9.98
2023-05-15T07:48:44.436Z,12.65
2023-05-15T07:51:11.633Z,8.50
2023-05-15T07:53:39.119Z,11.10
2023-05-15T07:56:06.560Z,8.13
2023-05-15T07:58:37.102Z,7.53
2023-05-15T08:01:05.161Z,10.15
2023-05-15T08:03:33.987Z,9.77
2023-05-15T08:06:01.420Z,10.02
2023-05-15T08:08:28.980Z,9.77
2023-05-15T08:10:56.282Z,6.78
2023-05-15T08:13:23.892Z,11.45
2023-05-15T08:15:51.092Z,11.00
2023-05-15T08:18:18.675Z,8.43
2023-05-15T08:20:46.054Z,7.60
2023-05-15T08:23:13.586Z,8.52
2023-05-15T08:25:40.822Z,7.50
2023-05-15T08:28:08.381Z,10.38
2023-05-15T08:30:36.270Z,18.67
2023-05-15T08:33:03.878Z,11.57
2023-05-15T08:35:31.148Z,7.72
2023-05-15T08:37:59.091Z,12.40
2023-05-15T08:40:38.324Z,7.28
2023-05-15T08:43:15.834Z,6.53
2023-05-15T08:45:44.004Z,8.35
2023-05-15T08:48:16.394Z,6.78
2023-05-15T08:50:44.665Z,9.27
2023-05-15T08:53:13.363Z,6.18
2023-05-15T08:55:40.916Z,6.63
2023-05-15T08:58:09.266Z,6.88
2023-05-15T09:00:37.779Z,3.20
2023-05-15T09:03:05.825Z,8.10
2023-05-15T09:05:33.584Z,6.63
2023-05-15T09:08:04.452Z,8.05
2023-05-15T09:10:33.227Z,7.20
2023-05-15T09:13:02.382Z,4.53
2023-05-15T09:15:30.663Z,8.73
2023-05-15T09:17:58.392Z,10.68
2023-05-15T09:20:34.012Z,8.82
2023-05-15T09:23:03.355Z,8.35
2023-05-15T09:25:40.545Z,8.88
2023-05-15T09:28:25.112Z,15.68
2023-05-15T09:30:58.804Z,10.77
2023-05-15T09:33:37.977Z,11.10
2023-05-15T09:36:07.284Z,7.13
2023-05-15T09:38:40.064Z,10.25
2023-05-15T09:41:09.176Z,5.47
2023-05-15T09:43:38.547Z,6.15
2023-05-15T09:46:07.119Z,8.00
2023-05-15T09:48:35.696Z,6.75
2023-05-15T09:51:04.609Z,5.47
2023-05-15T09:53:32.328Z,10.63
2023-05-15T09:55:59.640Z,7.50
2023-05-15T09:58:27.143Z,7.28
2023-05-15T10:00:54.301Z,8.32
2023-05-15T10:03:21.994Z,10.38
2023-05-15T10:05:49.404Z,10.85
2023-05-15T10:08:27.383Z,5.30
2023-05-15T10:10:56.052Z,8.40
2023-05-15T10:13:24.046Z,8.57
2023-05-15T10:15:52.443Z,5.78
2023-05-15T10:18:26.247Z,5.13
2023-05-15T10:20:53.544Z,6.32
2023-05-15T10:23:22.557Z,8.15
2023-05-15T10:26:03.297Z,7.80
2023-05-15T10:28:32.109Z,9.40
2023-05-15T10:31:04.025Z,8.68
2023-05-15T10:33:32.911Z,6.65
2023-05-15T10:36:00.823Z,7.05
2023-05-15T10:38:29.525Z,5.95
2023-05-15T10:41:13.144Z,15.73
2023-05-15T10:43:44.804Z,7.40
2023-05-15T10:46:14.041Z,10.80
2023-05-15T10:48:42.308Z,6.15
2023-05-15T10:51:23.838Z,6.93
2023-05-15T10:56:18.767Z,6.28
2023-05-15T10:58:51.590Z,4.50
2023-05-15T11:01:33.141Z,5.88
2023-05-15T11:04:16.702Z,5.35
2023-05-15T11:06:49.589Z,19.10
2023-05-15T11:09:28.788Z,6.28
2023-05-15T11:11:58.145Z,8.10
2023-05-15T11:14:35.175Z,7.30
2023-05-15T11:17:04.759Z,8.13
2023-05-15T11:19:40.117Z,14.30
2023-05-15T11:22:28.203Z,11.80
2023-05-15T11:25:01.650Z,5.78
2023-05-15T11:27:33.257Z,6.13
2023-05-15T11:30:17.986Z,6.97
2023-05-15T11:32:59.731Z,11.02
2023-05-15T11:35:46.649Z,8.57
2023-05-15T11:38:18.364Z,5.82
2023-05-15T11:40:52.680Z,9.07
2023-05-15T11:43:24.858Z,6.55
2023-05-15T11:46:05.012Z,5.30
2023-05-15T11:48:43.260Z,4.78
2023-05-15T11:51:30.262Z,5.93
2023-05-15T11:53:58.304Z,7.13
2023-05-15T11:56:30.194Z,8.55
2023-05-15T11:58:59.379Z,4.13
2023-05-15T12:01:28.328Z,9.35
2023-05-15T12:03:56.080Z,6.78
2023-05-15T12:06:24.482Z,7.60
2023-05-15T12:08:53.407Z,10.38
2023-05-15T12:11:25.449Z,8.05
2023-05-15T12:13:56.526Z,7.10
2023-05-15T12:16:28.252Z,10.23
2023-05-15T12:18:58.947Z,9.55
2023-05-15T12:21:27.526Z,11.48
2023-05-15T12:26:28.320Z,6.93
2023-05-15T12:28:56.457Z,7.60
2023-05-15T12:31:24.334Z,11.80
2023-05-15T12:33:51.766Z,9.15
2023-05-15T12:36:22.625Z,9.13
2023-05-15T12:38:49.923Z,6.82
2023-05-15T12:41:17.673Z,7.95
2023-05-15T12:43:44.900Z,7.55
2023-05-15T12:46:15.015Z,17.92
2023-05-15T12:48:42.403Z,13.15
2023-05-15T12:51:09.955Z,8.38
2023-05-15T12:53:40.061Z,7.65
2023-05-15T12:56:09.361Z,6.40
2023-05-15T12:58:38.330Z,8.55
2023-05-15T13:01:06.318Z,10.00
2023-05-15T13:03:34.382Z,11.18
2023-05-15T13:06:07.138Z,8.82
2023-05-15T13:08:40.391Z,8.40
2023-05-15T13:11:12.905Z,10.35
2023-05-15T13:13:45.130Z,10.25
2023-05-15T13:16:24.613Z,7.15
2023-05-15T13:18:52.484Z,9.50
2023-05-15T13:21:20.125Z,8.95
2023-05-15T13:23:47.527Z,10.23
2023-05-15T13:26:14.990Z,8.73
2023-05-15T13:28:42.194Z,8.98
2023-05-15T13:31:09.697Z,11.93
2023-05-15T13:33:37.629Z,7.90
2023-05-15T13:36:05.557Z,7.43
2023-05-15T13:38:33.484Z,8.68
2023-05-15T13:41:01.052Z,8.07
2023-05-15T13:43:28.372Z,5.50
2023-05-15T13:45:56.080Z,6.80
2023-05-15T13:48:23.390Z,7.85
2023-05-15T13:50:51.207Z,4.60
2023-05-15T13:53:18.799Z,6.07
2023-05-15T13:55:46.932Z,8.50
2023-05-15T13:58:15.148Z,5.72
2023-05-15T14:00:44.056Z,6.35
2023-05-15T14:03:14.790Z,5.45
2023-05-15T14:05:42.907Z,8.88
2023-05-15T14:08:10.143Z,6.35
2023-05-15T14:10:37.735Z,6.47
2023-05-15T14:13:05.038Z,6.32
2023-05-15T14:15:32.521Z,7.22
2023-05-15T14:17:59.754Z,8.80
2023-05-15T14:20:27.520Z,8.93
2023-05-15T14:22:54.939Z,8.55
2023-05-15T14:25:22.699Z,7.05
2023-05-15T14:27:49.914Z,11.27
2023-05-15T14:30:17.386Z,8.77
2023-05-15T14:32:44.586Z,6.72
2023-05-15T14:35:12.054Z,7.80
2023-05-15T14:37:39.282Z,8.32
2023-05-15T14:40:08.150Z,8.88
2023-05-15T14:42:35.345Z,8.77
2023-05-15T14:45:03.159Z,8.77
2023-05-15T14:47:31.365Z,7.57
2023-05-15T14:49:59.078Z,12.43
2023-05-15T14:52:26.273Z,11.48
2023-05-15T14:55:07.779Z,9.50
2023-05-15T14:57:35.855Z,13.50
2023-05-15T15:00:06.315Z,12.00
2023-05-15T15:02:33.862Z,11.57
2023-05-15T15:05:01.668Z,12.13
2023-05-15T15:07:32.750Z,11.00
2023-05-15T15:10:00.259Z,13.68
2023-05-15T15:12:27.720Z,17.77
2023-05-15T15:14:55.174Z,12.65
2023-05-15T15:17:22.823Z,14.10
2023-05-15T15:19:50.338Z,13.52
2023-05-15T15:22:17.540Z,15.73
2023-05-15T15:24:45.160Z,13.82
2023-05-15T15:27:12.428Z,17.92
2023-05-15T15:29:39.986Z,15.73
2023-05-15T15:32:07.595Z,11.52
2023-05-15T15:34:35.193Z,11.60
2023-05-15T15:37:02.364Z,15.60
2023-05-15T15:39:29.817Z,19.55
2023-05-15T15:41:57.102Z,19.55
2023-05-15T15:44:24.562Z,19.40
2023-05-15T15:46:51.748Z,17.15
2023-05-15T15:49:19.249Z,14.65
2023-05-15T15:51:46.595Z,16.90
2023-05-15T15:54:14.046Z,16.80
2023-05-15T15:56:42.899Z,21.15
2023-05-15T15:59:10.411Z,17.52
2023-05-15T16:01:37.645Z,17.30
2023-05-15T16:04:05.238Z,19.38
2023-05-15T16:06:33.469Z,18.90
2023-05-15T16:09:01.767Z,19.33
2023-05-15T16:11:29.738Z,20.55
2023-05-15T16:13:57.193Z,24.00
2023-05-15T16:16:24.707Z,21.17
2023-05-15T16:18:52.212Z,19.85
2023-05-15T16:21:19.408Z,21.30
2023-05-15T16:23:46.947Z,23.98
2023-05-15T16:26:14.135Z,26.80
2023-05-15T16:28:41.599Z,25.83
2023-05-15T16:31:09.713Z,28.45
2023-05-15T16:33:37.411Z,23.92
2023-05-15T16:36:05.356Z,22.35
2023-05-15T16:38:32.920Z,25.95
2023-05-15T16:41:00.101Z,24.23
2023-05-15T16:43:27.679Z,24.75
2023-05-15T16:45:54.888Z,25.17
2023-05-15T16:48:22.984Z,25.45
2023-05-15T16:50:50.527Z,25.73
2023-05-15T16:53:18.870Z,27.05
2023-05-15T16:55:47.054Z,28.02
2023-05-15T16:58:14.951Z,28.70
2023-05-15T17:00:42.114Z,30.92
2023-05-15T17:03:09.704Z,23.85
2023-05-15T17:05:36.920Z,26.92
2023-05-15T17:08:05.660Z,27.35
2023-05-15T17:10:32.868Z,27.08
2023-05-15T17:13:00.465Z,24.83
2023-05-15T17:15:28.039Z,27.17
2023-05-15T17:17:58.069Z,26.10
2023-05-15T17:20:25.336Z,30.45
2023-05-15T17:22:52.810Z,30.02
2023-05-15T17:25:20.019Z,27.33
2023-05-15T17:27:47.494Z,30.27
2023-05-15T17:30:14.946Z,28.60
2023-05-15T17:32:42.477Z,28.75
2023-05-15T17:35:10.389Z,29.00
2023-05-15T17:37:38.115Z,28.90
2023-05-15T17:40:05.886Z,26.90
2023-05-15T17:42:33.451Z,30.88
2023-05-15T17:45:00.852Z,27.02
2023-05-15T17:47:28.510Z,28.27
2023-05-15T17:49:55.872Z,27.20
2023-05-15T17:52:23.371Z,27.67
2023-05-15T17:54:50.884Z,28.02
2023-05-15T17:57:18.454Z,29.88
2023-05-15T17:59:45.702Z,30.17
2023-05-15T18:02:13.265Z,33.53
2023-05-15T18:04:40.562Z,31.52
2023-05-15T18:07:08.048Z,32.65
2023-05-15T18:09:35.402Z,31.92
2023-05-15T18:12:02.890Z,31.80
2023-05-15T18:14:30.125Z,34.47
2023-05-15T18:16:57.794Z,38.53
2023-05-15T18:19:25.113Z,31.80
2023-05-15T18:21:52.789Z,36.33
2023-05-15T18:24:20.109Z,36.05
2023-05-15T18:26:47.652Z,30.35
2023-05-15T18:29:14.830Z,36.33
2023-05-15T18:31:42.473Z,31.38
2023-05-15T18:34:09.736Z,34.47
2023-05-15T18:36:37.223Z,33.53
2023-05-15T18:39:04.434Z,34.22
2023-05-15T18:41:32.007Z,34.55
2023-05-15T18:43:59.287Z,36.63
2023-05-15T18:46:28.440Z,30.73
2023-05-15T18:48:55.775Z,34.10
2023-05-15T18:51:23.912Z,32.92
2023-05-15T18:53:51.325Z,33.50
2023-05-15T18:56:18.826Z,34.70
2023-05-15T18:58:47.490Z,34.53
2023-05-15T19:01:15.099Z,39.80
2023-05-15T19:03:42.414Z,35.42
2023-05-15T19:06:10.043Z,29.52
2023-05-15T19:08:37.201Z,32.67
2023-05-15T19:11:04.667Z,34.17
2023-05-15T19:13:33.194Z,34.80
2023-05-15T19:16:00.693Z,33.40
2023-05-15T19:18:27.971Z,36.78
2023-05-15T19:20:56.801Z,33.97
2023-05-15T19:23:24.665Z,37.50
2023-05-15T19:25:52.705Z,37.45
2023-05-15T19:28:19.921Z,33.03
2023-05-15T19:30:47.413Z,36.75
2023-05-15T19:33:16.070Z,35.88
2023-05-15T19:35:44.332Z,39.47
2023-05-15T19:38:11.674Z,33.25
2023-05-15T19:40:39.268Z,44.00
2023-05-15T19:43:06.569Z,38.33
2023-05-15T19:45:34.061Z,37.33
2023-05-15T19:48:01.435Z,39.65
2023-05-15T19:50:29.549Z,42.88
2023-05-15T19:52:57.398Z,35.00
2023-05-15T19:55:25.080Z,39.28
2023-05-15T19:57:56.036Z,41.22
2023-05-15T20:00:23.945Z,49.20
2023-05-15T20:02:51.324Z,49.60
2023-05-15T20:05:18.962Z,43.17
2023-05-15T20:07:46.377Z,53.03
2023-05-15T20:10:14.227Z,41.80
2023-05-15T20:12:41.404Z,44.55
2023-05-15T20:15:09.296Z,49.13
2023-05-15T20:17:36.465Z,118.10
2023-05-15T20:20:08.912Z,51.50
2023-05-15T20:22:36.259Z,44.10
2023-05-15T20:25:04.056Z,41.00
2023-05-15T20:27:31.283Z,39.15
2023-05-15T20:29:59.311Z,36.10
2023-05-15T20:32:26.847Z,35.60
2023-05-15T20:34:55.963Z,30.85
2023-05-15T20:37:27.230Z,35.55
2023-05-15T20:39:54.952Z,31.15
2023-05-15T20:42:22.705Z,26.23
2023-05-15T20:44:51.661Z,30.85
2023-05-15T20:47:19.016Z,28.02
2023-05-15T20:49:46.634Z,28.88
2023-05-15T20:52:13.924Z,30.33
2023-05-15T20:54:41.427Z,31.05
2023-05-15T20:57:08.687Z,27.85
2023-05-15T20:59:36.224Z,27.60
2023-05-15T21:02:03.461Z,29.92
2023-05-15T21:04:31.289Z,23.42
2023-05-15T21:06:58.756Z,25.85
2023-05-15T21:09:26.306Z,26.73
2023-05-15T21:11:53.509Z,24.20
2023-05-15T21:14:21.062Z,23.63
2023-05-15T21:16:48.321Z,26.17
2023-05-15T21:19:15.997Z,24.88
2023-05-15T21:21:43.274Z,23.15
2023-05-15T21:24:10.866Z,22.15
2023-05-15T21:26:38.038Z,19.33
2023-05-15T21:29:05.678Z,22.73
2023-05-15T21:31:33.114Z,21.30
2023-05-15T21:34:00.790Z,21.73
2023-05-15T21:36:27.949Z,19.98
2023-05-15T21:38:55.458Z,17.85
2023-05-15T21:41:22.763Z,16.52
2023-05-15T21:43:50.264Z,15.23
2023-05-15T21:46:17.521Z,14.50
2023-05-15T21:48:46.133Z,12.52
2023-05-15T21:51:13.381Z,13.23
2023-05-15T21:53:41.102Z,14.13
2023-05-15T21:56:08.592Z,13.13
2023-05-15T21:58:36.132Z,12.63
2023-05-15T22:01:03.311Z,12.05
2023-05-15T22:03:31.209Z,10.40
2023-05-15T22:05:58.581Z,10.63
2023-05-15T22:08:26.676Z,10.88
2023-05-15T22:10:54.029Z,11.35
2023-05-15T22:13:21.707Z,8.60
2023-05-15T22:15:48.930Z,10.00
2023-05-15T22:18:16.577Z,9.30
2023-05-15T22:20:45.178Z,10.10
2023-05-15T22:23:12.730Z,11.23
2023-05-15T22:25:40.000Z,11.70
2023-05-15T22:28:07.497Z,11.35
2023-05-15T22:30:35.608Z,11.40
2023-05-15T22:33:03.126Z,13.23
2023-05-15T22:35:30.661Z,11.75
2023-05-15T22:37:58.130Z,11.82
2023-05-15T22:40:26.359Z,13.45
2023-05-15T22:42:54.095Z,14.77
2023-05-15T22:45:21.262Z,13.68
2023-05-15T22:47:49.552Z,14.55
2023-05-15T22:50:16.888Z,16.83
2023-05-15T22:52:44.310Z,16.17
2023-05-15T22:55:12.963Z,18.25
2023-05-15T22:57:40.532Z,16.25
2023-05-15T23:00:09.865Z,15.88
2023-05-15T23:02:38.546Z,15.75
2023-05-15T23:05:06.559Z,13.23
2023-05-15T23:07:34.441Z,12.55
2023-05-15T23:10:01.735Z,11.50
2023-05-15T23:12:30.946Z,9.50
2023-05-15T23:14:58.154Z,10.05
2023-05-15T23:17:26.640Z,9.63
2023-05-15T23:19:54.021Z,8.27
2023-05-15T23:22:21.451Z,9.63
2023-05-15T23:24:48.762Z,10.23
2023-05-15T23:27:16.280Z,8.00
2023-05-15T23:29:43.452Z,8.25
2023-05-15T23:32:10.939Z,8.65
2023-05-15T23:34:38.125Z,8.07
2023-05-15T23:37:06.000Z,10.45
2023-05-15T23:39:33.166Z,8.55
2023-05-15T23:42:00.647Z,8.27
2023-05-15T23:44:27.991Z,8.00
2023-05-15T23:46:55.701Z,8.57
2023-05-15T23:49:23.053Z,7.57
2023-05-15T23:51:50.571Z,7.60
2023-05-15T23:54:17.773Z,7.45
2023-05-15T23:56:45.433Z,6.68
2023-05-15T23:59:13.875Z,8.52
